createdAt,value
2022-12-04T00:02:00.695Z,1.40
2022-12-04T00:04:28.975Z,1.40
2022-12-04T00:06:59.017Z,2.10
2022-12-04T00:09:27.687Z,1.40
2022-12-04T00:11:55.937Z,1.60
2022-12-04T00:14:24.199Z,1.40
2022-12-04T00:16:53.043Z,1.40
2022-12-04T00:19:22.779Z,1.40
2022-12-04T00:24:20.067Z,1.40
2022-12-04T00:31:46.282Z,2.40
2022-12-04T00:34:14.678Z,1.40
2022-12-04T00:36:44.783Z,1.40
2022-12-04T00:39:13.115Z,1.40
2022-12-04T00:41:41.562Z,1.40
2022-12-04T00:44:09.844Z,1.50
2022-12-04T00:46:38.102Z,2.60
2022-12-04T00:49:06.405Z,1.40
2022-12-04T00:51:34.673Z,0.10
2022-12-04T00:54:04.601Z,1.40
2022-12-04T00:59:02.332Z,1.40
2022-12-04T01:01:32.039Z,1.40
2022-12-04T01:04:00.585Z,1.40
2022-12-04T01:06:32.923Z,1.40
2022-12-04T01:09:06.559Z,1.40
2022-12-04T01:11:35.321Z,1.40
2022-12-04T01:14:03.925Z,1.40
2022-12-04T01:16:35.647Z,1.50
2022-12-04T01:19:05.486Z,1.40
2022-12-04T01:21:34.062Z,1.40
2022-12-04T01:24:04.015Z,1.40
2022-12-04T01:26:32.389Z,1.40
2022-12-04T01:29:00.697Z,1.40
2022-12-04T01:31:29.136Z,1.40
2022-12-04T01:33:57.680Z,1.40
2022-12-04T01:36:29.215Z,1.40
2022-12-04T01:38:58.315Z,1.50
2022-12-04T01:41:32.274Z,1.50
2022-12-04T01:44:17.603Z,1.50
2022-12-04T01:46:48.308Z,1.50
2022-12-04T01:49:22.867Z,1.50
2022-12-04T01:52:00.100Z,1.40
2022-12-04T01:54:33.447Z,1.50
2022-12-04T01:57:08.270Z,1.40
2022-12-04T01:59:42.643Z,1.40
2022-12-04T02:02:15.780Z,1.50
2022-12-04T02:04:45.338Z,1.40
2022-12-04T02:07:13.826Z,2.50
2022-12-04T02:09:45.525Z,1.20
2022-12-04T02:12:24.975Z,1.50
2022-12-04T02:15:09.355Z,1.50
2022-12-04T02:17:49.018Z,1.50
2022-12-04T02:20:34.567Z,1.50
2022-12-04T02:23:44.753Z,1.50
2022-12-04T02:26:34.514Z,1.50
2022-12-04T02:29:13.118Z,1.50
2022-12-04T02:31:52.551Z,1.50
2022-12-04T02:34:29.588Z,1.50
2022-12-04T02:37:03.972Z,1.50
2022-12-04T02:39:39.235Z,1.50
2022-12-04T02:42:15.674Z,1.50
2022-12-04T02:44:51.439Z,1.50
2022-12-04T02:47:24.393Z,1.60
2022-12-04T02:49:59.560Z,1.60
2022-12-04T02:52:34.793Z,1.60
2022-12-04T02:55:09.298Z,1.60
2022-12-04T02:57:44.222Z,1.60
2022-12-04T03:00:16.192Z,1.60
2022-12-04T03:02:54.421Z,1.70
2022-12-04T03:05:31.350Z,1.60
2022-12-04T03:10:40.174Z,3.00
2022-12-04T03:13:14.713Z,1.60
2022-12-04T03:15:52.014Z,1.60
2022-12-04T03:18:44.776Z,1.60
2022-12-04T03:21:20.570Z,2.70
2022-12-04T03:23:56.129Z,1.60
2022-12-04T03:26:30.461Z,1.60
2022-12-04T03:29:09.098Z,1.70
2022-12-04T03:31:46.334Z,1.60
2022-12-04T03:34:23.614Z,1.70
2022-12-04T03:36:59.149Z,3.00
2022-12-04T03:39:36.943Z,1.70
2022-12-04T03:42:15.021Z,1.70
2022-12-04T03:44:50.241Z,1.70
2022-12-04T03:47:30.357Z,1.70
2022-12-04T03:50:09.023Z,1.70
2022-12-04T03:52:49.667Z,0.40
2022-12-04T03:55:27.640Z,1.70
2022-12-04T03:58:05.866Z,1.80
2022-12-04T04:00:38.747Z,1.70
2022-12-04T04:03:15.314Z,1.70
2022-12-04T04:05:49.137Z,1.70
2022-12-04T04:08:27.296Z,1.70
2022-12-04T04:11:03.598Z,1.60
2022-12-04T04:13:57.190Z,1.70
2022-12-04T04:16:47.809Z,1.80
2022-12-04T04:19:38.678Z,1.70
2022-12-04T04:22:29.312Z,1.70
2022-12-04T04:25:05.269Z,1.80
2022-12-04T04:27:33.567Z,1.70
2022-12-04T04:30:02.595Z,1.70
2022-12-04T04:35:22.043Z,1.70
2022-12-04T04:38:02.339Z,1.70
2022-12-04T04:40:42.044Z,1.70
2022-12-04T04:43:18.538Z,1.70
2022-12-04T04:45:51.395Z,1.80
2022-12-04T04:48:28.832Z,1.70
2022-12-04T04:51:01.188Z,1.80
2022-12-04T04:53:37.707Z,1.80
2022-12-04T04:56:08.377Z,1.70
2022-12-04T04:58:36.819Z,1.70
2022-12-04T05:01:10.486Z,1.70
2022-12-04T05:03:39.481Z,1.80
2022-12-04T05:06:09.817Z,1.70
2022-12-04T05:11:08.049Z,1.70
2022-12-04T05:13:36.363Z,1.70
2022-12-04T05:16:08.501Z,1.70
2022-12-04T05:18:37.471Z,1.80
2022-12-04T05:21:09.555Z,1.70
2022-12-04T05:23:37.848Z,1.80
2022-12-04T05:26:07.151Z,1.80
2022-12-04T05:28:35.477Z,1.80
2022-12-04T05:31:05.703Z,1.80
2022-12-04T05:33:34.286Z,1.80
2022-12-04T05:36:05.936Z,1.60
2022-12-04T05:38:36.022Z,1.80
2022-12-04T05:41:07.022Z,1.70
2022-12-04T05:43:36.457Z,1.80
2022-12-04T05:46:06.675Z,1.80
2022-12-04T05:48:36.257Z,1.80
2022-12-04T05:51:07.999Z,1.80
2022-12-04T05:53:38.365Z,1.80
2022-12-04T05:56:08.672Z,1.80
2022-12-04T06:01:14.320Z,1.80
2022-12-04T06:03:42.879Z,1.80
2022-12-04T06:06:21.436Z,1.90
2022-12-04T06:08:54.424Z,1.90
2022-12-04T06:11:26.024Z,1.90
2022-12-04T06:13:54.755Z,1.90
2022-12-04T06:16:25.435Z,1.80
2022-12-04T06:18:57.396Z,1.80
2022-12-04T06:21:29.448Z,1.80
2022-12-04T06:23:59.918Z,1.80
2022-12-04T06:26:28.309Z,1.80
2022-12-04T06:28:58.359Z,1.90
2022-12-04T06:31:30.400Z,1.80
2022-12-04T06:33:59.549Z,2.50
2022-12-04T06:36:28.343Z,1.90
2022-12-04T06:38:59.403Z,2.00
2022-12-04T06:41:29.230Z,1.90
2022-12-04T06:43:58.706Z,1.90
2022-12-04T06:46:30.403Z,1.90
2022-12-04T06:49:01.261Z,1.90
2022-12-04T06:51:34.894Z,0.70
2022-12-04T06:54:05.465Z,2.60
2022-12-04T06:56:35.610Z,2.00
2022-12-04T06:59:06.334Z,2.00
2022-12-04T07:01:36.298Z,2.00
2022-12-04T07:04:05.883Z,2.00
2022-12-04T07:06:36.579Z,2.00
2022-12-04T07:09:09.847Z,1.90
2022-12-04T07:11:39.976Z,2.00
2022-12-04T07:16:41.246Z,2.00
2022-12-04T07:19:11.223Z,2.00
2022-12-04T07:24:15.758Z,2.00
2022-12-04T07:26:44.519Z,2.00
2022-12-04T07:29:15.225Z,2.00
2022-12-04T07:31:44.688Z,2.10
2022-12-04T07:34:13.185Z,2.10
2022-12-04T07:39:16.831Z,2.20
2022-12-04T07:41:47.238Z,2.10
2022-12-04T07:44:16.372Z,2.20
2022-12-04T07:46:44.802Z,2.20
2022-12-04T07:49:14.015Z,2.20
2022-12-04T07:51:42.435Z,2.20
2022-12-04T07:54:10.755Z,2.30
2022-12-04T07:56:40.523Z,2.40
2022-12-04T07:59:10.587Z,2.30
2022-12-04T08:01:39.206Z,2.40
2022-12-04T08:04:07.659Z,2.40
2022-12-04T08:06:36.245Z,2.40
2022-12-04T08:09:09.873Z,2.40
2022-12-04T08:11:40.269Z,2.50
2022-12-04T08:14:09.779Z,2.50
2022-12-04T08:16:38.344Z,1.80
2022-12-04T08:19:07.646Z,2.50
2022-12-04T08:21:36.154Z,2.50
2022-12-04T08:24:04.839Z,4.00
2022-12-04T08:26:34.302Z,2.70
2022-12-04T08:29:06.746Z,2.70
2022-12-04T08:31:37.345Z,2.80
2022-12-04T08:34:08.635Z,1.90
2022-12-04T08:36:37.022Z,2.80
2022-12-04T08:39:06.154Z,2.80
2022-12-04T08:41:34.537Z,2.80
2022-12-04T08:44:04.295Z,2.90
2022-12-04T08:46:33.035Z,2.90
2022-12-04T08:49:01.444Z,2.90
2022-12-04T08:51:34.527Z,2.90
2022-12-04T08:54:05.715Z,3.00
2022-12-04T08:56:36.071Z,3.00
2022-12-04T09:01:35.305Z,3.50
2022-12-04T09:06:32.492Z,3.10
2022-12-04T09:09:01.494Z,3.10
2022-12-04T09:11:32.389Z,3.10
2022-12-04T09:14:02.970Z,3.20
2022-12-04T09:16:34.587Z,3.20
2022-12-04T09:19:05.708Z,3.30
2022-12-04T09:21:34.140Z,3.30
2022-12-04T09:24:02.770Z,3.40
2022-12-04T09:26:33.720Z,3.40
2022-12-04T09:29:04.830Z,3.40
2022-12-04T09:31:36.660Z,3.60
2022-12-04T09:34:05.586Z,3.50
2022-12-04T09:36:34.192Z,3.60
2022-12-04T09:39:02.591Z,3.60
2022-12-04T09:41:55.302Z,2.80
2022-12-04T09:44:30.631Z,3.60
2022-12-04T09:47:06.080Z,3.70
2022-12-04T09:49:43.169Z,3.70
2022-12-04T09:52:27.436Z,3.80
2022-12-04T09:54:58.134Z,3.80
2022-12-04T09:57:39.374Z,3.80
2022-12-04T10:00:14.495Z,3.70
2022-12-04T10:02:51.365Z,3.60
2022-12-04T10:05:26.384Z,3.60
2022-12-04T10:08:07.684Z,3.70
2022-12-04T10:10:43.537Z,3.70
2022-12-04T10:13:45.214Z,3.70
2022-12-04T10:16:25.600Z,3.80
2022-12-04T10:19:09.332Z,3.80
2022-12-04T10:21:52.695Z,3.90
2022-12-04T10:24:39.236Z,4.00
2022-12-04T10:27:15.823Z,4.10
2022-12-04T10:29:50.147Z,4.20
2022-12-04T10:32:24.389Z,4.20
2022-12-04T10:34:59.476Z,4.30
2022-12-04T10:37:29.369Z,4.30
2022-12-04T10:40:09.130Z,4.30
2022-12-04T10:42:47.233Z,3.70
2022-12-04T10:47:50.818Z,4.40
2022-12-04T10:50:24.120Z,4.30
2022-12-04T10:52:52.779Z,4.40
2022-12-04T10:55:32.917Z,4.40
2022-12-04T10:58:02.756Z,4.40
2022-12-04T11:00:34.537Z,4.40
2022-12-04T11:03:11.524Z,4.40
2022-12-04T11:05:55.343Z,4.40
2022-12-04T11:08:29.142Z,4.40
2022-12-04T11:11:03.007Z,4.40
2022-12-04T11:13:31.465Z,4.50
2022-12-04T11:16:04.684Z,4.60
2022-12-04T11:18:38.533Z,4.60
2022-12-04T11:21:18.245Z,4.70
2022-12-04T11:23:49.876Z,4.70
2022-12-04T11:26:31.673Z,4.00
2022-12-04T11:29:03.292Z,4.50
2022-12-04T11:31:33.118Z,4.70
2022-12-04T11:34:06.595Z,4.80
2022-12-04T11:36:41.908Z,4.70
2022-12-04T11:39:20.102Z,4.80
2022-12-04T11:41:49.792Z,4.80
2022-12-04T11:44:27.706Z,4.90
2022-12-04T11:46:59.360Z,4.90
2022-12-04T11:49:28.795Z,5.00
2022-12-04T11:52:18.125Z,5.00
2022-12-04T11:55:01.489Z,5.10
2022-12-04T11:57:44.356Z,4.50
2022-12-04T12:00:17.087Z,5.40
2022-12-04T12:03:07.637Z,5.40
2022-12-04T12:06:12.660Z,5.40
2022-12-04T12:09:12.785Z,5.50
2022-12-04T12:11:50.827Z,5.50
2022-12-04T12:14:30.399Z,5.50
2022-12-04T12:17:12.618Z,5.50
2022-12-04T12:20:14.465Z,5.50
2022-12-04T12:23:03.905Z,5.40
2022-12-04T12:25:51.771Z,5.50
2022-12-04T12:28:42.881Z,5.40
2022-12-04T12:31:53.647Z,5.40
2022-12-04T12:34:35.473Z,5.30
2022-12-04T12:37:15.408Z,5.40
2022-12-04T12:39:53.143Z,5.40
2022-12-04T12:42:32.068Z,5.40
2022-12-04T12:45:07.464Z,5.40
2022-12-04T12:47:43.863Z,5.40
2022-12-04T12:50:18.623Z,6.20
2022-12-04T12:52:56.973Z,5.50
2022-12-04T12:55:31.650Z,5.50
2022-12-04T12:58:14.339Z,5.50
2022-12-04T13:00:50.133Z,5.50
2022-12-04T13:03:32.973Z,5.50
2022-12-04T13:06:10.617Z,5.60
2022-12-04T13:08:49.312Z,5.60
2022-12-04T13:11:20.895Z,5.60
2022-12-04T13:13:55.205Z,5.60
2022-12-04T13:16:29.426Z,5.60
2022-12-04T13:19:10.667Z,5.60
2022-12-04T13:21:47.403Z,5.60
2022-12-04T13:24:57.700Z,5.60
2022-12-04T13:27:46.341Z,5.60
2022-12-04T13:30:21.590Z,5.50
2022-12-04T13:33:23.666Z,5.50
2022-12-04T13:36:36.744Z,5.50
2022-12-04T13:42:07.784Z,5.40
2022-12-04T13:44:37.351Z,5.30
2022-12-04T13:47:09.681Z,5.30
2022-12-04T13:49:42.170Z,5.80
2022-12-04T13:52:25.131Z,5.30
2022-12-04T13:54:59.532Z,5.20
2022-12-04T13:57:29.875Z,5.20
2022-12-04T14:00:08.263Z,5.20
2022-12-04T14:02:52.875Z,5.10
2022-12-04T14:05:31.105Z,6.50
2022-12-04T14:08:07.932Z,5.10
2022-12-04T14:10:40.265Z,5.10
2022-12-04T14:13:22.406Z,5.10
2022-12-04T14:18:33.880Z,5.00
2022-12-04T14:21:06.514Z,5.00
2022-12-04T14:23:40.136Z,5.00
2022-12-04T14:26:37.330Z,4.90
2022-12-04T14:29:39.097Z,4.90
2022-12-04T14:32:17.906Z,4.90
2022-12-04T14:34:48.691Z,5.00
2022-12-04T14:37:27.900Z,5.00
2022-12-04T14:39:59.257Z,5.00
2022-12-04T14:42:34.621Z,5.00
2022-12-04T14:45:07.713Z,5.70
2022-12-04T14:47:47.912Z,4.90
2022-12-04T14:50:35.368Z,4.90
2022-12-04T14:53:17.788Z,4.90
2022-12-04T14:56:07.059Z,4.90
2022-12-04T14:58:39.818Z,4.90
2022-12-04T15:06:32.754Z,5.00
2022-12-04T15:12:09.376Z,5.10
2022-12-04T15:14:43.260Z,5.00
2022-12-04T15:17:13.223Z,5.00
2022-12-04T15:22:24.913Z,4.90
2022-12-04T15:24:55.099Z,4.90
2022-12-04T15:27:32.385Z,4.90
2022-12-04T15:30:04.445Z,4.00
2022-12-04T15:32:34.546Z,4.80
2022-12-04T15:35:09.029Z,4.80
2022-12-04T15:37:39.218Z,4.80
2022-12-04T15:40:11.872Z,4.80
2022-12-04T15:42:40.135Z,4.80
2022-12-04T15:45:29.806Z,4.50
2022-12-04T15:47:58.717Z,4.80
2022-12-04T15:50:31.162Z,4.80
2022-12-04T15:53:09.444Z,4.80
2022-12-04T15:55:47.938Z,4.70
2022-12-04T15:58:23.321Z,4.70
2022-12-04T16:00:57.948Z,4.70
2022-12-04T16:03:31.909Z,4.80
2022-12-04T16:06:15.429Z,4.90
2022-12-04T16:08:48.204Z,4.90
2022-12-04T16:11:33.793Z,5.00
2022-12-04T16:14:16.353Z,5.10
2022-12-04T16:19:32.834Z,5.20
2022-12-04T16:22:01.792Z,5.30
2022-12-04T16:27:02.061Z,5.30
2022-12-04T16:29:31.509Z,5.30
2022-12-04T16:32:03.257Z,5.30
2022-12-04T16:34:32.278Z,5.30
2022-12-04T16:39:32.004Z,5.00
2022-12-04T16:46:59.298Z,4.70
2022-12-04T16:51:56.222Z,5.80
2022-12-04T16:56:54.689Z,4.50
2022-12-04T16:59:24.347Z,4.70
2022-12-04T17:01:54.539Z,4.70
2022-12-04T17:04:23.173Z,4.50
2022-12-04T17:06:51.565Z,4.70
2022-12-04T17:09:20.073Z,4.50
2022-12-04T17:11:48.476Z,4.50
2022-12-04T17:14:18.190Z,4.60
2022-12-04T17:16:47.343Z,4.60
2022-12-04T17:19:16.122Z,4.60
2022-12-04T17:21:45.473Z,4.60
2022-12-04T17:24:13.826Z,4.60
2022-12-04T17:26:42.144Z,4.60
2022-12-04T17:29:10.453Z,4.60
2022-12-04T17:31:40.206Z,4.60
2022-12-04T17:34:08.587Z,4.60
2022-12-04T17:36:36.918Z,4.50
2022-12-04T17:39:07.311Z,4.50
2022-12-04T17:44:04.615Z,4.50
2022-12-04T17:49:07.130Z,4.60
2022-12-04T17:54:06.435Z,4.70
2022-12-04T17:56:35.408Z,4.80
2022-12-04T17:59:04.627Z,4.90
2022-12-04T18:04:07.195Z,4.70
2022-12-04T18:06:38.775Z,4.70
2022-12-04T18:09:09.254Z,4.70
2022-12-04T18:11:42.334Z,4.60
2022-12-04T18:14:13.654Z,4.50
2022-12-04T18:16:44.938Z,3.50
2022-12-04T18:19:16.099Z,4.40
2022-12-04T18:21:44.757Z,4.30
2022-12-04T18:24:14.041Z,4.30
2022-12-04T18:26:45.350Z,3.90
2022-12-04T18:29:17.706Z,4.30
2022-12-04T18:34:16.834Z,4.40
2022-12-04T18:36:46.288Z,4.30
2022-12-04T18:39:17.539Z,4.40
2022-12-04T18:41:46.188Z,4.30
2022-12-04T18:44:15.718Z,4.40
2022-12-04T18:46:44.268Z,4.40
2022-12-04T18:49:13.139Z,4.40
2022-12-04T18:51:49.148Z,4.40
2022-12-04T18:54:21.290Z,4.30
2022-12-04T18:56:50.619Z,4.20
2022-12-04T19:04:23.158Z,4.20
2022-12-04T19:06:55.934Z,4.10
2022-12-04T19:10:02.140Z,4.10
2022-12-04T19:12:16.597Z,4.20
2022-12-04T19:14:44.912Z,4.20
2022-12-04T19:17:13.237Z,4.20
2022-12-04T19:19:41.580Z,4.90
2022-12-04T19:29:41.444Z,4.00
2022-12-04T19:32:12.075Z,4.00
2022-12-04T19:34:41.206Z,4.00
2022-12-04T19:37:10.939Z,4.00
2022-12-04T19:39:39.595Z,5.20
2022-12-04T19:42:08.566Z,4.10
2022-12-04T19:52:17.110Z,4.00
2022-12-04T19:54:45.957Z,4.00
2022-12-04T19:57:14.771Z,4.00
2022-12-04T20:02:16.319Z,3.90
2022-12-04T20:09:48.786Z,3.90
2022-12-04T20:12:20.247Z,3.90
2022-12-04T20:14:48.653Z,3.80
2022-12-04T20:17:16.946Z,3.90
2022-12-04T20:19:45.286Z,3.90
2022-12-04T20:22:14.937Z,3.90
2022-12-04T20:27:12.176Z,3.80
2022-12-04T20:29:40.491Z,3.80
2022-12-04T20:32:08.763Z,3.70
2022-12-04T20:37:12.293Z,3.70
2022-12-04T20:39:42.208Z,3.70
2022-12-04T20:42:10.534Z,4.20
2022-12-04T20:44:38.801Z,3.40
2022-12-04T20:47:07.129Z,3.60
2022-12-04T20:49:35.556Z,3.60
2022-12-04T20:57:10.905Z,3.60
2022-12-04T20:59:39.469Z,4.40
2022-12-04T21:02:07.932Z,3.50
2022-12-04T21:07:08.161Z,3.60
2022-12-04T21:12:27.302Z,3.50
2022-12-04T21:15:14.920Z,3.60
2022-12-04T21:20:12.965Z,3.60
2022-12-04T21:27:38.833Z,6.50
2022-12-04T21:30:10.699Z,3.70
2022-12-04T21:35:08.427Z,3.70
2022-12-04T21:42:35.469Z,3.60
2022-12-04T21:45:08.859Z,3.60
2022-12-04T21:50:08.341Z,3.60
2022-12-04T21:52:36.842Z,3.60
2022-12-04T22:00:04.052Z,3.60
2022-12-04T22:02:36.359Z,3.50
2022-12-04T22:05:05.292Z,3.50
2022-12-04T22:07:33.883Z,3.50
2022-12-04T22:12:49.566Z,3.50
2022-12-04T22:17:48.620Z,3.40
2022-12-04T22:20:17.599Z,3.40
2022-12-04T22:25:15.221Z,3.40
2022-12-04T22:27:43.591Z,5.10
2022-12-04T22:30:14.404Z,3.40
2022-12-04T22:37:44.478Z,3.40
2022-12-04T22:40:14.717Z,3.40
2022-12-04T22:42:43.087Z,3.40
2022-12-04T22:50:13.068Z,3.30
2022-12-04T22:52:41.386Z,3.30
2022-12-04T22:55:10.264Z,3.30
2022-12-04T23:02:38.481Z,3.30
2022-12-04T23:05:07.024Z,3.30
2022-12-04T23:07:37.445Z,3.40
2022-12-04T23:10:07.859Z,5.70
2022-12-04T23:12:36.202Z,3.30
2022-12-04T23:15:04.828Z,3.30
2022-12-04T23:17:33.196Z,3.30
2022-12-04T23:25:00.418Z,3.30
2022-12-04T23:29:57.412Z,5.00
2022-12-04T23:37:23.081Z,3.20
2022-12-04T23:42:21.397Z,3.20
2022-12-04T23:47:18.445Z,4.20
2022-12-04T23:52:15.776Z,3.20
2022-12-04T23:54:44.223Z,3.20
2022-12-04T23:57:12.572Z,3.20
2022-12-04T23:59:42.369Z,3.20
